Time;durP1;ratioP1;P1;durP2;ratioP2;P2;SDS_P1;SDS_P2;PMS_P1;PMS_P2;Temp;Humidity;BMP_temperature;BMP_pressure;BME280_temperature;BME280_humidity;BME280_pressure;Samples;Min_cycle;Max_cycle;Signal;HPM_P1;HPM_P2
2023/02/14 00:02:08;;;;;;;216.75;24.42;;;4.40;87.70;;;;;;5016579;28;20091;-61
2023/02/14 00:04:37;;;;;;;191.85;24.17;;;4.40;87.90;;;;;;5017392;28;20404;-61
2023/02/14 00:07:04;;;;;;;195.45;24.75;;;4.30;87.50;;;;;;5018884;28;20084;-59
2023/02/14 00:09:30;;;;;;;195.10;23.33;;;4.30;87.50;;;;;;5018383;28;20424;-59
2023/02/14 00:11:56;;;;;;;123.32;20.25;;;4.20;87.50;;;;;;5015374;28;20041;-58
2023/02/14 00:17:05;;;;;;;102.78;22.33;;;4.10;88.00;;;;;;5018500;28;20040;-58
2023/02/14 00:19:33;;;;;;;106.15;22.30;;;4.10;88.00;;;;;;5018630;28;20038;-60
2023/02/14 00:21:59;;;;;;;122.05;23.92;;;4.10;88.20;;;;;;5013637;28;20033;-60
2023/02/14 00:24:25;;;;;;;97.13;21.92;;;4.10;89.30;;;;;;5016651;28;20096;-59
2023/02/14 00:26:51;;;;;;;79.60;23.27;;;4.10;88.50;;;;;;5018200;28;20617;-60
2023/02/14 00:29:20;;;;;;;139.23;23.23;;;4.10;88.60;;;;;;5013292;28;20157;-60
2023/02/14 00:31:45;;;;;;;78.68;20.73;;;4.10;88.70;;;;;;5016924;28;20412;-61
2023/02/14 00:34:11;;;;;;;168.00;23.15;;;4.10;88.60;;;;;;5018045;28;20032;-61
2023/02/14 00:36:37;;;;;;;132.07;23.08;;;4.10;88.50;;;;;;5015614;28;20408;-60
2023/02/14 00:39:09;;;;;;;98.50;23.35;;;4.10;88.40;;;;;;5016773;28;20044;-61
2023/02/14 00:41:35;;;;;;;117.85;23.05;;;4.10;88.40;;;;;;5014507;28;20049;-59
2023/02/14 00:44:01;;;;;;;50.13;20.05;;;4.10;88.50;;;;;;5017827;28;20104;-59
2023/02/14 00:46:27;;;;;;;61.05;20.92;;;4.10;88.60;;;;;;5014596;28;20124;-60
2023/02/14 00:48:53;;;;;;;96.80;20.98;;;4.10;88.60;;;;;;5016144;28;20339;-60
2023/02/14 00:51:19;;;;;;;65.25;21.27;;;4.20;88.70;;;;;;5014637;28;20258;-59
2023/02/14 00:53:47;;;;;;;107.90;21.88;;;4.10;88.60;;;;;;5018915;28;20038;-57
2023/02/14 00:56:13;;;;;;;93.50;20.90;;;4.10;88.60;;;;;;5015797;28;20444;-59
2023/02/14 00:58:40;;;;;;;96.53;21.80;;;4.10;88.60;;;;;;5017504;28;20080;-61
2023/02/14 01:01:06;;;;;;;113.63;20.85;;;4.10;88.60;;;;;;5017873;28;20041;-61
2023/02/14 01:03:32;;;;;;;80.40;21.30;;;4.10;88.40;;;;;;5016659;28;20041;-61
2023/02/14 01:05:58;;;;;;;112.13;21.48;;;4.10;88.40;;;;;;5017444;28;20064;-61
2023/02/14 01:08:24;;;;;;;115.25;21.88;;;4.10;88.40;;;;;;5019064;28;20135;-61
2023/02/14 01:10:50;;;;;;;43.92;19.33;;;4.10;88.20;;;;;;5015872;28;20047;-58
2023/02/14 01:13:16;;;;;;;68.32;19.42;;;4.10;88.20;;;;;;5015221;28;20029;-59
2023/02/14 01:15:44;;;;;;;74.03;20.08;;;4.10;88.20;;;;;;5013054;28;20037;-60
2023/02/14 01:18:10;;;;;;;45.80;18.73;;;4.10;88.20;;;;;;5014742;28;20530;-61
2023/02/14 01:20:36;;;;;;;57.90;18.70;;;4.00;88.20;;;;;;5017255;28;20408;-59
2023/02/14 01:23:01;;;;;;;64.40;20.10;;;4.00;88.20;;;;;;5015845;28;20057;-61
2023/02/14 01:25:28;;;;;;;59.28;20.17;;;4.00;88.30;;;;;;5015596;28;20034;-61
2023/02/14 01:27:53;;;;;;;72.05;19.75;;;4.00;88.20;;;;;;5016188;28;20509;-61
2023/02/14 01:30:19;;;;;;;77.38;19.33;;;4.00;88.20;;;;;;5017280;28;20041;-61
2023/02/14 01:32:45;;;;;;;44.97;19.00;;;4.00;88.30;;;;;;5015049;28;20037;-58
2023/02/14 01:35:11;;;;;;;45.05;19.00;;;3.90;88.30;;;;;;5011817;28;20080;-59
2023/02/14 01:37:37;;;;;;;49.33;19.67;;;3.90;88.20;;;;;;5014835;28;20041;-59
2023/02/14 01:40:04;;;;;;;58.55;20.27;;;3.90;88.30;;;;;;5013768;28;20059;-61
2023/02/14 01:42:31;;;;;;;55.45;20.42;;;3.90;88.50;;;;;;5013481;28;20069;-61
2023/02/14 01:45:13;;;;;;;52.67;19.20;;;3.90;88.50;;;;;;5012631;28;20363;-57
2023/02/14 01:47:42;;;;;;;42.63;19.40;;;3.90;88.70;;;;;;5015757;28;20034;-60
2023/02/14 01:50:31;;;;;;;47.20;19.52;;;3.90;88.60;;;;;;5014145;28;20076;-58
2023/02/14 01:53:11;;;;;;;71.75;20.25;;;3.80;88.90;;;;;;5014583;28;20033;-61
2023/02/14 01:55:46;;;;;;;47.78;19.42;;;3.80;88.60;;;;;;5015286;28;20765;-60
2023/02/14 01:58:20;;;;;;;52.40;19.52;;;3.90;88.60;;;;;;5014887;28;20108;-61
2023/02/14 02:00:55;;;;;;;49.42;19.88;;;3.80;88.50;;;;;;5019889;28;21005;-59
2023/02/14 02:03:24;;;;;;;63.67;19.40;;;3.80;88.50;;;;;;5014939;28;20030;-59
2023/02/14 02:05:55;;;;;;;51.60;19.15;;;3.80;88.50;;;;;;5014246;28;20403;-57
2023/02/14 02:08:21;;;;;;;40.60;17.75;;;3.80;88.60;;;;;;5016286;28;20585;-59
2023/02/14 02:10:46;;;;;;;48.92;19.38;;;3.80;89.40;;;;;;5018582;28;20200;-59
2023/02/14 02:13:19;;;;;;;48.45;18.75;;;3.70;88.60;;;;;;5014224;28;20439;-59
2023/02/14 02:16:10;;;;;;;34.70;17.58;;;3.80;88.70;;;;;;5012681;28;20037;-60
2023/02/14 02:18:58;;;;;;;55.97;19.20;;;3.80;88.90;;;;;;5014856;28;20234;-57
2023/02/14 02:21:33;;;;;;;61.10;18.00;;;3.80;88.70;;;;;;5011983;28;20046;-60
2023/02/14 02:24:25;;;;;;;66.43;18.98;;;3.70;88.40;;;;;;5014962;28;20083;-59
2023/02/14 02:27:17;;;;;;;44.50;18.77;;;3.70;88.40;;;;;;5014558;28;20030;-60
2023/02/14 02:30:14;;;;;;;43.90;17.88;;;3.70;88.20;;;;;;5016735;28;20041;-61
2023/02/14 02:32:42;;;;;;;39.00;17.35;;;3.60;88.30;;;;;;5010738;28;20038;-61
2023/02/14 02:35:23;;;;;;;42.22;18.17;;;3.60;88.30;;;;;;5014592;28;20103;-60
2023/02/14 02:38:09;;;;;;;44.63;18.50;;;3.60;88.60;;;;;;5013155;28;20088;-58
2023/02/14 02:41:15;;;;;;;37.88;18.27;;;3.60;88.60;;;;;;5004885;28;20033;-57
2023/02/14 02:44:02;;;;;;;43.30;17.73;;;3.60;88.70;;;;;;4967283;28;20085;-59
2023/02/14 02:47:01;;;;;;;35.15;18.55;;;3.60;88.60;;;;;;5013346;28;20408;-61
2023/02/14 02:53:02;;;;;;;35.20;18.40;;;3.60;88.80;;;;;;4986009;28;20039;-60
2023/02/14 02:58:51;;;;;;;40.53;18.52;;;3.60;88.90;;;;;;5015874;28;20102;-60
2023/02/14 03:01:23;;;;;;;44.22;18.38;;;3.60;88.70;;;;;;5014954;28;20037;-59
2023/02/14 03:06:38;;;;;;;33.88;18.05;;;3.60;88.90;;;;;;5011497;28;20129;-59
2023/02/14 03:09:30;;;;;;;38.30;18.55;;;3.60;88.80;;;;;;5015216;28;20033;-60
2023/02/14 03:12:16;;;;;;;39.33;19.17;;;3.60;89.00;;;;;;5000491;28;20325;-59
2023/02/14 03:14:50;;;;;;;35.00;18.67;;;3.70;88.80;;;;;;5014258;28;20503;-60
2023/02/14 03:17:38;;;;;;;38.63;17.97;;;3.60;88.60;;;;;;5014083;28;20374;-59
2023/02/14 03:20:30;;;;;;;38.05;18.30;;;3.70;88.60;;;;;;5012183;28;20033;-59
2023/02/14 03:23:07;;;;;;;35.88;18.15;;;3.70;88.20;;;;;;5013988;28;20041;-59
2023/02/14 03:25:45;;;;;;;39.60;17.95;;;3.60;88.00;;;;;;5014217;28;20513;-60
2023/02/14 03:28:39;;;;;;;34.67;17.90;;;3.60;87.90;;;;;;5014723;28;20482;-60
2023/02/14 03:31:27;;;;;;;41.42;18.10;;;3.50;88.00;;;;;;5005905;28;20038;-57
2023/02/14 03:34:20;;;;;;;54.63;17.17;;;3.50;88.00;;;;;;5008956;28;20037;-60
2023/02/14 03:37:10;;;;;;;35.30;17.05;;;3.50;88.00;;;;;;5016028;28;20083;-60
2023/02/14 03:39:38;;;;;;;34.97;17.98;;;3.40;88.10;;;;;;5017086;28;20176;-58
2023/02/14 03:42:10;;;;;;;43.30;17.02;;;3.40;88.20;;;;;;5014702;28;20091;-59
2023/02/14 03:44:38;;;;;;;46.88;18.35;;;3.40;88.40;;;;;;5016837;28;20045;-59
2023/02/14 03:47:27;;;;;;;36.45;16.90;;;3.40;88.40;;;;;;5015010;28;20117;-60
2023/02/14 03:49:58;;;;;;;37.70;17.50;;;3.30;88.40;;;;;;5015450;28;21241;-59
2023/02/14 03:52:25;;;;;;;39.15;17.63;;;3.30;88.10;;;;;;5016470;28;20445;-60
2023/02/14 03:54:55;;;;;;;42.45;17.92;;;3.30;88.10;;;;;;5016534;28;20076;-60
2023/02/14 03:57:49;;;;;;;45.53;18.05;;;3.30;88.20;;;;;;5016142;28;20487;-59
2023/02/14 04:00:17;;;;;;;38.40;16.70;;;3.30;88.30;;;;;;5016540;28;20600;-60
2023/02/14 04:02:48;;;;;;;36.00;16.98;;;3.20;88.20;;;;;;5016538;28;20120;-61
2023/02/14 04:05:22;;;;;;;45.25;17.65;;;3.20;88.40;;;;;;5017962;28;20041;-59
2023/02/14 04:07:51;;;;;;;43.72;18.15;;;3.20;88.60;;;;;;5019250;28;20033;-60
2023/02/14 04:10:18;;;;;;;45.42;17.02;;;3.20;88.50;;;;;;5019650;28;20041;-58
2023/02/14 04:12:43;;;;;;;46.75;16.95;;;3.20;88.40;;;;;;5016121;28;20165;-60
2023/02/14 04:15:10;;;;;;;35.15;16.73;;;3.20;88.40;;;;;;5017223;28;20128;-59
2023/02/14 04:20:20;;;;;;;59.70;17.13;;;3.10;88.40;;;;;;5012622;28;20076;-60
2023/02/14 04:22:46;;;;;;;42.65;17.55;;;3.10;88.40;;;;;;5015209;28;20041;-61
2023/02/14 04:25:12;;;;;;;34.83;16.52;;;3.10;88.50;;;;;;5014111;28;20108;-58
2023/02/14 04:27:38;;;;;;;42.08;16.92;;;3.10;88.60;;;;;;5015795;28;20493;-59
2023/02/14 04:30:04;;;;;;;30.75;16.85;;;3.10;88.60;;;;;;5016616;28;20052;-61
2023/02/14 04:32:29;;;;;;;102.28;17.88;;;3.00;88.60;;;;;;5015153;28;20034;-59
2023/02/14 04:34:55;;;;;;;52.85;16.98;;;3.00;89.40;;;;;;5016791;28;20096;-58
2023/02/14 04:37:21;;;;;;;36.72;16.55;;;3.00;88.60;;;;;;5017499;28;20032;-59
2023/02/14 04:39:46;;;;;;;29.52;15.02;;;3.00;88.60;;;;;;5016108;28;20040;-58
2023/02/14 04:42:12;;;;;;;31.08;16.77;;;3.00;88.60;;;;;;5017439;28;20442;-60
2023/02/14 04:44:37;;;;;;;61.80;17.77;;;3.00;88.70;;;;;;5016453;28;20111;-57
2023/02/14 04:47:04;;;;;;;52.65;16.33;;;3.00;88.90;;;;;;5014676;28;20033;-59
2023/02/14 04:49:30;;;;;;;41.85;16.80;;;3.00;88.90;;;;;;5015087;28;20117;-59
2023/02/14 04:51:55;;;;;;;45.30;17.20;;;3.00;88.90;;;;;;5017155;28;20044;-56
2023/02/14 04:54:21;;;;;;;44.15;16.50;;;3.00;88.90;;;;;;5016168;28;21380;-58
2023/02/14 04:56:47;;;;;;;44.72;16.42;;;3.00;88.80;;;;;;5016160;28;20041;-60
2023/02/14 04:59:13;;;;;;;72.30;17.58;;;3.00;88.70;;;;;;5015689;28;20033;-60
2023/02/14 05:01:39;;;;;;;37.92;15.50;;;3.00;88.70;;;;;;5016441;28;20045;-60
2023/02/14 05:04:05;;;;;;;47.47;17.02;;;3.00;88.60;;;;;;5016056;28;20405;-61
2023/02/14 05:06:31;;;;;;;34.75;15.93;;;3.00;88.60;;;;;;5017251;28;20053;-61
2023/02/14 05:08:57;;;;;;;51.00;15.73;;;3.00;88.70;;;;;;5017186;28;20041;-60
2023/02/14 05:11:23;;;;;;;172.35;19.63;;;3.00;88.60;;;;;;5016166;28;20048;-61
2023/02/14 05:13:49;;;;;;;131.23;18.10;;;3.00;88.60;;;;;;5016289;28;20052;-61
2023/02/14 05:16:15;;;;;;;104.72;18.00;;;3.00;88.50;;;;;;5015510;28;20429;-60
2023/02/14 05:18:40;;;;;;;33.00;15.98;;;2.90;88.30;;;;;;5016418;28;20038;-59
2023/02/14 05:21:06;;;;;;;32.60;16.27;;;2.90;88.40;;;;;;5015302;28;20037;-59
2023/02/14 05:23:32;;;;;;;114.57;18.50;;;2.90;88.80;;;;;;5013973;28;20649;-61
2023/02/14 05:25:57;;;;;;;61.45;16.73;;;2.90;89.00;;;;;;5014007;28;20042;-60
2023/02/14 05:28:23;;;;;;;34.33;16.15;;;2.90;89.10;;;;;;5014044;28;20034;-61
2023/02/14 05:30:50;;;;;;;41.17;17.17;;;2.90;89.10;;;;;;5014930;28;20099;-60
2023/02/14 05:33:16;;;;;;;44.17;16.80;;;2.90;89.10;;;;;;5018540;28;20120;-59
2023/02/14 05:35:41;;;;;;;47.53;16.20;;;3.00;89.20;;;;;;5018547;28;20144;-59
2023/02/14 05:38:07;;;;;;;43.38;16.45;;;3.00;89.10;;;;;;5019381;28;20136;-58
2023/02/14 05:40:33;;;;;;;46.15;14.35;;;3.00;88.90;;;;;;5016297;28;20045;-60
2023/02/14 05:42:58;;;;;;;43.45;15.57;;;3.00;88.70;;;;;;5017408;28;20055;-59
2023/02/14 05:45:24;;;;;;;33.05;16.23;;;3.00;88.80;;;;;;5018018;28;20208;-60
2023/02/14 05:47:50;;;;;;;30.48;15.75;;;3.00;88.50;;;;;;5017716;28;20062;-59
2023/02/14 05:50:16;;;;;;;32.83;16.33;;;3.00;88.50;;;;;;5018982;28;20034;-59
2023/02/14 05:52:42;;;;;;;47.20;16.23;;;3.00;88.60;;;;;;5015505;28;20121;-61
2023/02/14 05:55:08;;;;;;;81.57;16.77;;;2.90;88.60;;;;;;5019376;28;20117;-58
2023/02/14 05:57:33;;;;;;;180.75;19.05;;;2.90;88.60;;;;;;5017896;28;20033;-58
2023/02/14 06:00:00;;;;;;;90.05;18.88;;;2.90;88.60;;;;;;5017216;28;20473;-58
2023/02/14 06:02:25;;;;;;;46.45;16.67;;;2.90;88.50;;;;;;5017177;28;20026;-59
2023/02/14 06:04:51;;;;;;;49.35;16.75;;;2.90;88.60;;;;;;5017378;28;20402;-59
2023/02/14 06:07:17;;;;;;;141.82;18.75;;;2.90;88.70;;;;;;5018007;28;20107;-58
2023/02/14 06:09:43;;;;;;;218.05;19.88;;;2.90;88.80;;;;;;5016705;28;20041;-58
2023/02/14 06:12:08;;;;;;;198.43;18.52;;;2.80;88.70;;;;;;5022503;28;20030;-59
2023/02/14 06:14:34;;;;;;;239.48;21.33;;;2.80;88.50;;;;;;5017160;28;21070;-60
2023/02/14 06:16:59;;;;;;;138.70;17.23;;;2.80;88.40;;;;;;5017445;28;20037;-58
2023/02/14 06:19:25;;;;;;;157.55;19.13;;;2.70;88.40;;;;;;5017533;28;20128;-59
2023/02/14 06:21:51;;;;;;;100.22;16.70;;;2.70;88.60;;;;;;5016759;28;20045;-59
2023/02/14 06:24:16;;;;;;;126.57;17.17;;;2.60;89.20;;;;;;5016197;28;20037;-60
2023/02/14 06:26:42;;;;;;;52.58;16.23;;;2.60;88.90;;;;;;5016268;28;20030;-58
2023/02/14 06:29:08;;;;;;;58.42;15.80;;;2.60;89.10;;;;;;5016196;28;20076;-59
2023/02/14 06:31:33;;;;;;;85.93;17.45;;;2.60;89.20;;;;;;5016643;28;20044;-60
2023/02/14 06:33:59;;;;;;;70.70;17.63;;;2.60;89.30;;;;;;5015531;28;20034;-60
2023/02/14 06:36:25;;;;;;;116.13;17.58;;;2.50;89.30;;;;;;5017125;28;20564;-57
2023/02/14 06:38:51;;;;;;;126.38;18.63;;;2.50;89.20;;;;;;5016673;28;20057;-58
2023/02/14 06:41:17;;;;;;;92.65;17.17;;;2.50;89.20;;;;;;5015688;28;20072;-58
2023/02/14 06:43:44;;;;;;;80.38;17.92;;;2.40;89.10;;;;;;5014795;28;20409;-61
2023/02/14 06:46:10;;;;;;;129.10;17.50;;;2.40;89.30;;;;;;5017027;28;20617;-60
2023/02/14 06:48:36;;;;;;;125.47;17.25;;;2.40;89.40;;;;;;5016391;28;20508;-57
2023/02/14 06:51:02;;;;;;;116.10;16.73;;;2.40;89.30;;;;;;5018066;28;20124;-60
2023/02/14 06:53:27;;;;;;;66.10;15.13;;;2.40;89.30;;;;;;5016339;28;20045;-61
2023/02/14 06:55:53;;;;;;;109.97;17.85;;;2.40;89.40;;;;;;5017619;28;20100;-60
2023/02/14 06:58:19;;;;;;;60.78;15.75;;;2.40;89.40;;;;;;5016606;28;20436;-61
2023/02/14 07:00:45;;;;;;;54.80;15.82;;;2.40;89.50;;;;;;5016113;28;20041;-60
2023/02/14 07:03:11;;;;;;;71.35;16.17;;;2.40;89.60;;;;;;5016689;28;20060;-61
2023/02/14 07:05:36;;;;;;;60.15;16.65;;;2.40;90.00;;;;;;5017395;28;20047;-61
2023/02/14 07:08:02;;;;;;;38.80;15.90;;;2.40;89.50;;;;;;5016660;28;20045;-61
2023/02/14 07:10:28;;;;;;;48.58;15.93;;;2.50;89.60;;;;;;5022270;28;20045;-59
2023/02/14 07:12:53;;;;;;;80.90;17.80;;;2.50;89.70;;;;;;5018810;28;20037;-60
2023/02/14 07:15:19;;;;;;;50.47;15.50;;;2.50;89.80;;;;;;5021412;28;20029;-61
2023/02/14 07:17:44;;;;;;;50.63;16.33;;;2.50;89.70;;;;;;5021216;28;20095;-60
2023/02/14 07:20:11;;;;;;;48.28;16.05;;;2.50;89.60;;;;;;5020620;28;20420;-57
2023/02/14 07:22:38;;;;;;;39.78;15.30;;;2.60;89.60;;;;;;5019065;28;20556;-60
2023/02/14 07:25:05;;;;;;;78.65;15.93;;;2.60;89.60;;;;;;5021285;28;20505;-59
2023/02/14 07:27:32;;;;;;;59.08;15.50;;;2.60;89.40;;;;;;5021818;28;20048;-60
2023/02/14 07:29:57;;;;;;;91.50;16.20;;;2.60;89.30;;;;;;5020366;28;20026;-58
2023/02/14 07:32:23;;;;;;;35.60;14.13;;;2.60;89.30;;;;;;5019940;28;20040;-57
2023/02/14 07:34:49;;;;;;;60.63;15.07;;;2.60;89.30;;;;;;5020917;28;20044;-60
2023/02/14 07:37:16;;;;;;;54.60;14.60;;;2.60;89.20;;;;;;5020114;28;20083;-60
2023/02/14 07:39:43;;;;;;;40.20;16.13;;;2.60;89.20;;;;;;5019667;28;20033;-60
2023/02/14 07:42:09;;;;;;;52.92;20.92;;;2.60;89.20;;;;;;5020777;28;20691;-59
2023/02/14 07:44:37;;;;;;;55.45;17.52;;;2.60;89.20;;;;;;5019772;28;20029;-60
2023/02/14 07:47:04;;;;;;;56.35;17.83;;;2.60;89.10;;;;;;5017414;28;20041;-59
2023/02/14 07:49:29;;;;;;;55.53;16.88;;;2.60;89.10;;;;;;5018972;28;20492;-58
2023/02/14 07:51:55;;;;;;;33.45;16.15;;;2.60;89.20;;;;;;5019512;28;20041;-60
2023/02/14 07:54:20;;;;;;;34.33;15.35;;;2.60;89.30;;;;;;5019602;28;20041;-60
2023/02/14 07:56:46;;;;;;;41.00;15.63;;;2.60;89.30;;;;;;5019422;28;20042;-60
2023/02/14 07:59:11;;;;;;;41.40;16.73;;;2.60;90.10;;;;;;5018954;28;20432;-61
2023/02/14 08:01:37;;;;;;;49.13;17.17;;;2.60;89.60;;;;;;5018516;28;20088;-59
2023/02/14 08:04:03;;;;;;;32.70;14.45;;;2.60;89.60;;;;;;5019483;28;20068;-61
2023/02/14 08:06:28;;;;;;;43.40;15.57;;;2.60;89.50;;;;;;5019268;28;20037;-60
2023/02/14 08:08:54;;;;;;;38.50;15.68;;;2.60;89.30;;;;;;5020894;28;20489;-60
2023/02/14 08:14:04;;;;;;;25.97;11.27;;;2.50;89.20;;;;;;5019776;28;20043;-60
2023/02/14 08:16:32;;;;;;;39.97;16.17;;;2.50;89.40;;;;;;5019440;28;20323;-59
2023/02/14 08:18:58;;;;;;;69.35;17.95;;;2.50;89.50;;;;;;5020513;28;20033;-60
2023/02/14 08:21:24;;;;;;;36.50;15.13;;;2.50;89.60;;;;;;5018405;28;20257;-58
2023/02/14 08:23:50;;;;;;;42.15;16.42;;;2.50;89.60;;;;;;5019191;28;20404;-59
2023/02/14 08:26:16;;;;;;;36.58;16.13;;;2.50;89.80;;;;;;5018065;28;20053;-60
2023/02/14 08:28:42;;;;;;;47.45;16.67;;;2.60;89.90;;;;;;5018989;28;20087;-59
2023/02/14 08:31:08;;;;;;;35.90;16.48;;;2.60;90.00;;;;;;5018434;28;20444;-61
2023/02/14 08:33:34;;;;;;;30.63;16.08;;;2.60;90.00;;;;;;5017506;28;20038;-58
2023/02/14 08:35:59;;;;;;;36.72;16.90;;;2.70;90.00;;;;;;5019989;28;20042;-60
2023/02/14 08:38:25;;;;;;;37.75;16.98;;;2.70;90.00;;;;;;5019261;28;20459;-60
2023/02/14 08:40:51;;;;;;;32.33;16.73;;;2.70;90.00;;;;;;5019021;28;20092;-58
2023/02/14 08:43:17;;;;;;;45.25;17.15;;;2.80;89.90;;;;;;5017951;28;20037;-59
2023/02/14 08:45:42;;;;;;;42.90;16.20;;;2.80;89.80;;;;;;5018451;28;20038;-59
2023/02/14 08:48:11;;;;;;;40.60;17.48;;;2.80;89.60;;;;;;5019379;28;20152;-59
2023/02/14 08:50:37;;;;;;;47.83;17.80;;;2.80;89.30;;;;;;5017785;28;20523;-59
2023/02/14 08:53:11;;;;;;;38.17;17.75;;;2.80;89.10;;;;;;5018251;28;20029;-60
2023/02/14 08:55:37;;;;;;;70.03;18.20;;;2.70;89.20;;;;;;5019165;28;20927;-60
2023/02/14 08:58:03;;;;;;;46.72;17.45;;;2.70;89.10;;;;;;5017876;28;20120;-60
2023/02/14 09:00:30;;;;;;;34.33;16.88;;;2.70;89.10;;;;;;5034181;28;20033;-61
2023/02/14 09:02:55;;;;;;;39.08;16.85;;;2.70;89.30;;;;;;5015739;28;20072;-61
2023/02/14 09:05:22;;;;;;;32.20;16.95;;;2.70;89.60;;;;;;5017302;28;20037;-59
2023/02/14 09:07:48;;;;;;;30.67;16.73;;;2.70;89.60;;;;;;5020054;28;20057;-61
2023/02/14 09:10:14;;;;;;;28.77;16.48;;;2.60;90.20;;;;;;5021321;28;20045;-61
2023/02/14 09:12:40;;;;;;;30.83;16.50;;;2.70;89.80;;;;;;5017682;28;20037;-60
2023/02/14 09:15:08;;;;;;;32.47;16.17;;;2.70;89.80;;;;;;5018625;28;20052;-61
2023/02/14 09:17:34;;;;;;;27.35;15.90;;;2.70;89.90;;;;;;5018860;28;20041;-59
2023/02/14 09:20:00;;;;;;;29.48;17.00;;;2.70;89.90;;;;;;5018437;28;20604;-61
2023/02/14 09:22:25;;;;;;;26.65;15.55;;;2.70;89.90;;;;;;5018992;28;20041;-60
2023/02/14 09:24:51;;;;;;;27.60;16.48;;;2.70;90.00;;;;;;5034058;28;20112;-59
2023/02/14 09:27:16;;;;;;;25.95;15.07;;;2.70;90.00;;;;;;5019535;28;20084;-60
2023/02/14 09:29:42;;;;;;;28.25;16.40;;;2.80;90.40;;;;;;5018909;28;20060;-61
2023/02/14 09:32:08;;;;;;;26.42;14.80;;;2.80;90.00;;;;;;5019639;28;20066;-61
2023/02/14 09:34:34;;;;;;;25.05;14.93;;;2.90;90.00;;;;;;5019179;28;20456;-60
2023/02/14 09:37:00;;;;;;;24.80;14.50;;;3.00;90.00;;;;;;5017632;28;20034;-57
2023/02/14 09:39:25;;;;;;;25.27;15.27;;;3.00;90.30;;;;;;5019034;28;20045;-61
2023/02/14 09:42:02;;;;;;;23.90;14.77;;;3.00;89.80;;;;;;5019686;28;20504;-60
2023/02/14 09:44:42;;;;;;;24.77;15.27;;;3.00;89.90;;;;;;5018208;28;20120;-59
2023/02/14 09:47:44;;;;;;;26.05;15.20;;;3.10;89.80;;;;;;5018383;28;20401;-59
2023/02/14 09:50:29;;;;;;;24.45;14.52;;;3.10;89.80;;;;;;5019348;28;20038;-60
2023/02/14 09:53:01;;;;;;;25.80;14.52;;;3.10;89.60;;;;;;5016537;28;20065;-60
2023/02/14 09:55:41;;;;;;;26.10;15.55;;;3.20;89.60;;;;;;5019552;28;20389;-58
2023/02/14 09:58:14;;;;;;;24.58;14.88;;;3.20;89.80;;;;;;5018306;28;20040;-58
2023/02/14 10:00:50;;;;;;;25.40;15.88;;;3.20;89.80;;;;;;5019146;28;20038;-59
2023/02/14 10:03:32;;;;;;;24.75;15.20;;;3.30;89.70;;;;;;5018640;28;20034;-57
2023/02/14 10:06:06;;;;;;;23.80;14.70;;;3.30;89.40;;;;;;5019141;28;20038;-58
2023/02/14 10:08:40;;;;;;;26.00;15.23;;;3.30;89.40;;;;;;5019251;28;20364;-59
2023/02/14 10:11:12;;;;;;;23.48;14.40;;;3.40;89.70;;;;;;5021819;28;20025;-59
2023/02/14 10:13:47;;;;;;;25.30;15.35;;;3.40;89.80;;;;;;5017437;28;20033;-60
2023/02/14 10:16:19;;;;;;;25.15;15.63;;;3.50;89.80;;;;;;5018947;28;20068;-58
2023/02/14 10:18:56;;;;;;;23.67;14.80;;;3.50;89.70;;;;;;5017848;28;20096;-59
2023/02/14 10:21:27;;;;;;;22.33;13.77;;;3.60;89.60;;;;;;5017769;28;20634;-60
2023/02/14 10:24:02;;;;;;;23.60;14.60;;;3.60;89.40;;;;;;5018573;28;20124;-60
2023/02/14 10:26:38;;;;;;;23.17;14.55;;;3.70;89.40;;;;;;5019953;28;20046;-59
2023/02/14 10:29:10;;;;;;;22.45;14.23;;;3.80;89.40;;;;;;5019232;28;20539;-57
2023/02/14 10:31:57;;;;;;;24.83;15.02;;;3.80;89.20;;;;;;5017594;28;20068;-59
2023/02/14 10:34:22;;;;;;;24.77;15.60;;;3.80;88.90;;;;;;5010563;28;20037;-59
2023/02/14 10:36:57;;;;;;;23.95;14.95;;;3.90;88.90;;;;;;5017329;28;20040;-57
2023/02/14 10:39:22;;;;;;;;;;;3.90;88.80;;;;;;5018540;28;20195;-59
2023/02/14 10:42:20;;;;;;;24.00;14.27;;;4.00;88.80;;;;;;5017205;28;19926;-60
2023/02/14 10:45:01;;;;;;;23.17;14.85;;;4.00;88.80;;;;;;5032787;28;20041;-60
2023/02/14 10:47:53;;;;;;;22.60;14.70;;;4.00;88.90;;;;;;5018892;28;20091;-60
2023/02/14 10:50:22;;;;;;;21.00;14.30;;;4.10;89.00;;;;;;5017700;28;20034;-60
2023/02/14 10:53:03;;;;;;;23.25;14.73;;;4.20;89.00;;;;;;5016840;28;20117;-59
2023/02/14 10:55:47;;;;;;;24.17;15.30;;;4.20;88.80;;;;;;5016655;28;20037;-60
2023/02/14 10:58:17;;;;;;;24.85;15.85;;;4.30;89.60;;;;;;5017543;28;20029;-59
2023/02/14 11:00:56;;;;;;;24.80;14.68;;;4.30;88.60;;;;;;5015932;28;20030;-60
2023/02/14 11:03:23;;;;;;;25.63;15.65;;;4.30;88.40;;;;;;5015905;28;20029;-61
2023/02/14 11:05:49;;;;;;;24.58;15.23;;;4.40;88.50;;;;;;5017718;28;20049;-60
2023/02/14 11:08:34;;;;;;;22.63;14.25;;;4.40;88.70;;;;;;5017711;28;20030;-59
2023/02/14 11:11:26;;;;;;;22.08;14.10;;;4.50;88.70;;;;;;5017776;28;20121;-60
2023/02/14 11:13:51;;;;;;;23.40;14.57;;;4.50;88.60;;;;;;5016283;28;20026;-60
2023/02/14 11:16:33;;;;;;;21.52;14.45;;;4.60;88.70;;;;;;5016678;28;20520;-59
2023/02/14 11:19:27;;;;;;;21.55;13.68;;;4.70;88.60;;;;;;5018082;28;20103;-59
2023/02/14 11:21:55;;;;;;;21.95;14.77;;;4.70;88.20;;;;;;5016844;28;20408;-58
2023/02/14 11:24:27;;;;;;;22.65;13.90;;;4.80;88.00;;;;;;5017470;28;20034;-59
2023/02/14 11:26:58;;;;;;;22.35;14.57;;;4.80;88.00;;;;;;5017945;28;20040;-59
2023/02/14 11:29:38;;;;;;;23.02;14.63;;;4.80;88.00;;;;;;5016178;28;20057;-60
2023/02/14 11:32:21;;;;;;;22.42;14.52;;;4.90;88.00;;;;;;5017174;28;20515;-60
2023/02/14 11:35:02;;;;;;;23.30;14.55;;;4.90;87.90;;;;;;5017014;28;20049;-59
2023/02/14 11:37:38;;;;;;;22.88;14.40;;;4.90;87.90;;;;;;5017083;28;20033;-58
2023/02/14 11:40:05;;;;;;;22.58;14.55;;;5.00;88.00;;;;;;5017412;28;20036;-59
2023/02/14 11:42:32;;;;;;;23.33;14.80;;;5.00;87.90;;;;;;5016303;28;20692;-59
2023/02/14 11:44:58;;;;;;;24.05;15.23;;;5.10;87.80;;;;;;5017326;28;20029;-61
2023/02/14 11:47:28;;;;;;;24.30;15.68;;;5.10;87.80;;;;;;5017475;28;20093;-59
2023/02/14 11:49:55;;;;;;;22.25;14.90;;;5.10;87.70;;;;;;5016852;28;22027;-60
2023/02/14 11:52:25;;;;;;;24.17;15.35;;;5.10;87.80;;;;;;5017691;28;20064;-61
2023/02/14 11:54:52;;;;;;;26.90;16.60;;;5.10;87.90;;;;;;5017986;28;20072;-61
2023/02/14 11:57:32;;;;;;;27.95;16.05;;;5.20;88.00;;;;;;5019441;28;20492;-59
2023/02/14 12:00:00;;;;;;;25.23;15.57;;;5.20;87.70;;;;;;5020297;28;20088;-57
2023/02/14 12:02:42;;;;;;;26.23;16.80;;;5.30;87.70;;;;;;5022048;28;20029;-60
2023/02/14 12:05:43;;;;;;;26.40;16.60;;;5.30;87.30;;;;;;5019893;28;20034;-61
2023/02/14 12:08:09;;;;;;;24.80;16.00;;;5.40;87.20;;;;;;5022360;28;20030;-61
2023/02/14 12:10:37;;;;;;;25.35;17.58;;;5.40;87.50;;;;;;5022386;28;20049;-60
2023/02/14 12:13:08;;;;;;;24.75;16.60;;;5.50;87.50;;;;;;5020427;28;20037;-58
2023/02/14 12:15:54;;;;;;;25.58;16.80;;;5.50;87.30;;;;;;5021053;28;20033;-59
2023/02/14 12:19:01;;;;;;;22.38;15.60;;;5.60;87.30;;;;;;5020477;28;20034;-59
2023/02/14 12:21:39;;;;;;;27.63;16.35;;;5.60;86.60;;;;;;5018139;28;20475;-60
2023/02/14 12:24:36;;;;;;;26.70;16.25;;;5.60;86.80;;;;;;5021557;28;20116;-59
2023/02/14 12:27:16;;;;;;;24.73;16.40;;;5.70;86.30;;;;;;5019684;28;20810;-60
2023/02/14 12:29:44;;;;;;;26.83;16.73;;;5.70;86.10;;;;;;5020651;28;20073;-60
2023/02/14 12:32:30;;;;;;;30.20;17.25;;;5.70;86.20;;;;;;5019517;28;20034;-61
2023/02/14 12:35:18;;;;;;;25.15;16.98;;;5.70;86.30;;;;;;5019628;28;20057;-60
2023/02/14 12:38:22;;;;;;;26.92;17.10;;;5.70;86.20;;;;;;5019675;28;20041;-60
2023/02/14 12:41:10;;;;;;;27.08;17.17;;;5.80;86.50;;;;;;5019578;28;20046;-59
2023/02/14 12:43:49;;;;;;;26.15;17.48;;;5.80;86.80;;;;;;5019202;28;20404;-58
2023/02/14 12:46:36;;;;;;;27.77;17.58;;;5.80;86.60;;;;;;5020810;28;20114;-60
2023/02/14 12:49:16;;;;;;;26.63;17.88;;;5.90;87.00;;;;;;5020340;28;20040;-59
2023/02/14 12:52:09;;;;;;;28.65;17.85;;;5.90;86.70;;;;;;5020529;28;20048;-56
2023/02/14 12:54:54;;;;;;;30.58;19.17;;;5.90;86.80;;;;;;5019580;28;20041;-59
2023/02/14 12:57:22;;;;;;;26.80;17.98;;;5.90;86.80;;;;;;5018542;28;20046;-60
2023/02/14 13:00:16;;;;;;;28.50;17.83;;;5.90;86.80;;;;;;5019959;28;20127;-60
2023/02/14 13:02:57;;;;;;;26.05;17.33;;;5.90;86.50;;;;;;5019433;28;20571;-60
2023/02/14 13:05:49;;;;;;;27.02;17.75;;;5.90;86.10;;;;;;5018746;28;20058;-60
2023/02/14 13:08:38;;;;;;;28.80;18.00;;;5.90;86.20;;;;;;5019796;28;20048;-58
2023/02/14 13:11:28;;;;;;;28.15;18.83;;;5.90;86.50;;;;;;5020902;28;20030;-59
2023/02/14 13:14:03;;;;;;;28.67;19.13;;;5.90;86.60;;;;;;5019476;28;20124;-60
2023/02/14 13:16:50;;;;;;;28.77;18.55;;;5.90;86.60;;;;;;5019828;28;20056;-56